Plymouth, California
Current Conditions -  °F | °C
As of 2:35 PM on Monday 26 Jan 2015 (Local Time) from KPVF Reporting Station
Clear Clear  
Wind Chill: 66°   Ceiling: Unl
Heat Index: 66°   Visibility: 10mi
Dew Point: 32°   Wind: 5mph
Humidity: 28%   Direction: 240°WSW
Pressure: 30.02"   Gusts: NA
Location:  38.48°N, 120.84°W
Report Text: KPVF 262235Z AUTO 24004KT 10SM CLR 19/00 A3002 RMK AO1
Loading
Personal Weather Stations






























Interactive Weather Map New forecast layout! Learn more

10-Day Weather Forecast

Advertisements
Track Severe Weather on mobile